<?xml version="1.0" encoding="UTF-8" standalone="no" ?>
<gpx xmlns="http://www.topografix.com/GPX/1/1" xmlns:xsi="http://www.w3.org/2001/XMLSchema-instance" xsi:schemaLocation="http://www.topografix.com/GPX/1/1 http://www.topografix.com/GPX/1/1/gpx.xsd" version="1.1" creator="VisuGPX - https://www.visugpx.com">
  <metadata>
    <name>Costebelle</name>
    <desc><![CDATA[A partir du parking de la Station de ski de laye suivre les panneaux direction Costebelle ,au sommet suivre les Crêtes jusqu\'à Coste Folle,descendre sur le bois, reprise du sentier et avant N.D de Bois Vert, prendre à droite ,retour sur la station.]]></desc>
  </metadata>
  <trk>
    <name><![CDATA[Tracé actuel: 30 OCT 2014 16:05]]></name>
    <trkseg>
      <trkpt lat="44.64421" lon="6.07195">
        <ele>1454.9</ele>
        <time>2014-10-30T15:05:13Z</time>
      </trkpt>
      <trkpt lat="44.6442" lon="6.07196">
        <ele>1426.93</ele>
        <time>2014-10-30T15:05:15Z</time>
      </trkpt>
      <trkpt lat="44.64419" lon="6.07197">
        <ele>1404.55</ele>
        <time>2014-10-30T15:05:16Z</time>
      </trkpt>
      <trkpt lat="44.64418" lon="6.07198">
        <ele>1386.57</ele>
        <time>2014-10-30T15:05:17Z</time>
      </trkpt>
      <trkpt lat="44.64417" lon="6.07199">
        <ele>1372.21</ele>
        <time>2014-10-30T15:05:18Z</time>
      </trkpt>
      <trkpt lat="44.64416" lon="6.07199">
        <ele>1360.7</ele>
        <time>2014-10-30T15:05:19Z</time>
      </trkpt>
      <trkpt lat="44.64415" lon="6.072">
        <ele>1351.43</ele>
        <time>2014-10-30T15:05:20Z</time>
      </trkpt>
      <trkpt lat="44.64414" lon="6.072">
        <ele>1343.99</ele>
        <time>2014-10-30T15:05:21Z</time>
      </trkpt>
      <trkpt lat="44.64413" lon="6.072">
        <ele>1337.96</ele>
        <time>2014-10-30T15:05:22Z</time>
      </trkpt>
      <trkpt lat="44.64412" lon="6.072">
        <ele>1333.09</ele>
        <time>2014-10-30T15:05:23Z</time>
      </trkpt>
      <trkpt lat="44.64411" lon="6.07201">
        <ele>1329.15</ele>
        <time>2014-10-30T15:05:24Z</time>
      </trkpt>
      <trkpt lat="44.6441" lon="6.07201">
        <ele>1325.93</ele>
        <time>2014-10-30T15:05:25Z</time>
      </trkpt>
      <trkpt lat="44.64408" lon="6.07202">
        <ele>1321.12</ele>
        <time>2014-10-30T15:05:27Z</time>
      </trkpt>
      <trkpt lat="44.64406" lon="6.07202">
        <ele>1317.93</ele>
        <time>2014-10-30T15:05:29Z</time>
      </trkpt>
      <trkpt lat="44.64401" lon="6.07203">
        <ele>1314.4</ele>
        <time>2014-10-30T15:05:33Z</time>
      </trkpt>
      <trkpt lat="44.64395" lon="6.07203">
        <ele>1311.5</ele>
        <time>2014-10-30T15:05:39Z</time>
      </trkpt>
      <trkpt lat="44.64384" lon="6.07202">
        <ele>1308.45</ele>
        <time>2014-10-30T15:05:50Z</time>
      </trkpt>
      <trkpt lat="44.64367" lon="6.07203">
        <ele>1305.27</ele>
        <time>2014-10-30T15:06:04Z</time>
      </trkpt>
      <trkpt lat="44.64352" lon="6.07199">
        <ele>1303.55</ele>
        <time>2014-10-30T15:06:19Z</time>
      </trkpt>
      <trkpt lat="44.6434" lon="6.07193">
        <ele>1304.02</ele>
        <time>2014-10-30T15:06:32Z</time>
      </trkpt>
      <trkpt lat="44.64326" lon="6.07183">
        <ele>1303.65</ele>
        <time>2014-10-30T15:06:52Z</time>
      </trkpt>
      <trkpt lat="44.64312" lon="6.07181">
        <ele>1301.65</ele>
        <time>2014-10-30T15:07:12Z</time>
      </trkpt>
      <trkpt lat="44.64303" lon="6.07184">
        <ele>1300</ele>
        <time>2014-10-30T15:07:29Z</time>
      </trkpt>
      <trkpt lat="44.64294" lon="6.07193">
        <ele>1297.86</ele>
        <time>2014-10-30T15:07:41Z</time>
      </trkpt>
      <trkpt lat="44.64284" lon="6.07212">
        <ele>1294.53</ele>
        <time>2014-10-30T15:07:57Z</time>
      </trkpt>
      <trkpt lat="44.64271" lon="6.0723">
        <ele>1291.41</ele>
        <time>2014-10-30T15:08:15Z</time>
      </trkpt>
      <trkpt lat="44.64268" lon="6.07232">
        <ele>1290.29</ele>
        <time>2014-10-30T15:08:20Z</time>
      </trkpt>
      <trkpt lat="44.64261" lon="6.07239">
        <ele>1288.78</ele>
        <time>2014-10-30T15:08:27Z</time>
      </trkpt>
      <trkpt lat="44.64259" lon="6.07242">
        <ele>1288.17</ele>
        <time>2014-10-30T15:08:30Z</time>
      </trkpt>
      <trkpt lat="44.64245" lon="6.07256">
        <ele>1286.35</ele>
        <time>2014-10-30T15:08:42Z</time>
      </trkpt>
      <trkpt lat="44.64235" lon="6.0726">
        <ele>1286.43</ele>
        <time>2014-10-30T15:08:56Z</time>
      </trkpt>
      <trkpt lat="44.64234" lon="6.07266">
        <ele>1286.42</ele>
        <time>2014-10-30T15:09:12Z</time>
      </trkpt>
      <trkpt lat="44.64237" lon="6.07272">
        <ele>1285.52</ele>
        <time>2014-10-30T15:09:20Z</time>
      </trkpt>
      <trkpt lat="44.64241" lon="6.0728">
        <ele>1284.06</ele>
        <time>2014-10-30T15:09:28Z</time>
      </trkpt>
      <trkpt lat="44.64236" lon="6.07302">
        <ele>1281.13</ele>
        <time>2014-10-30T15:09:46Z</time>
      </trkpt>
      <trkpt lat="44.64234" lon="6.07302">
        <ele>1279.08</ele>
        <time>2014-10-30T15:10:01Z</time>
      </trkpt>
      <trkpt lat="44.64234" lon="6.07305">
        <ele>1279.01</ele>
        <time>2014-10-30T15:10:38Z</time>
      </trkpt>
      <trkpt lat="44.64235" lon="6.07305">
        <ele>1279.35</ele>
        <time>2014-10-30T15:11:13Z</time>
      </trkpt>
      <trkpt lat="44.64238" lon="6.07302">
        <ele>1279.3</ele>
        <time>2014-10-30T15:11:43Z</time>
      </trkpt>
      <trkpt lat="44.64235" lon="6.07301">
        <ele>1280.36</ele>
        <time>2014-10-30T15:11:59Z</time>
      </trkpt>
      <trkpt lat="44.64238" lon="6.07294">
        <ele>1280.2</ele>
        <time>2014-10-30T15:12:31Z</time>
      </trkpt>
      <trkpt lat="44.64237" lon="6.07295">
        <ele>1280.13</ele>
        <time>2014-10-30T15:12:39Z</time>
      </trkpt>
      <trkpt lat="44.64237" lon="6.07298">
        <ele>1280.74</ele>
        <time>2014-10-30T15:13:07Z</time>
      </trkpt>
      <trkpt lat="44.64236" lon="6.07303">
        <ele>1280.68</ele>
        <time>2014-10-30T15:13:44Z</time>
      </trkpt>
      <trkpt lat="44.64238" lon="6.07303">
        <ele>1280.53</ele>
        <time>2014-10-30T15:14:12Z</time>
      </trkpt>
      <trkpt lat="44.64244" lon="6.07301">
        <ele>1280.71</ele>
        <time>2014-10-30T15:14:21Z</time>
      </trkpt>
      <trkpt lat="44.64239" lon="6.07299">
        <ele>1280.74</ele>
        <time>2014-10-30T15:15:10Z</time>
      </trkpt>
      <trkpt lat="44.64239" lon="6.07298">
        <ele>1281.19</ele>
        <time>2014-10-30T15:16:08Z</time>
      </trkpt>
      <trkpt lat="44.64238" lon="6.07295">
        <ele>1281.41</ele>
        <time>2014-10-30T15:16:50Z</time>
      </trkpt>
      <trkpt lat="44.64238" lon="6.07297">
        <ele>1281.26</ele>
        <time>2014-10-30T15:17:24Z</time>
      </trkpt>
      <trkpt lat="44.64237" lon="6.073">
        <ele>1281.24</ele>
        <time>2014-10-30T15:17:57Z</time>
      </trkpt>
      <trkpt lat="44.64238" lon="6.07303">
        <ele>1281.53</ele>
        <time>2014-10-30T15:18:29Z</time>
      </trkpt>
      <trkpt lat="44.64236" lon="6.07304">
        <ele>1282.44</ele>
        <time>2014-10-30T15:19:10Z</time>
      </trkpt>
      <trkpt lat="44.64235" lon="6.07312">
        <ele>1282.3</ele>
        <time>2014-10-30T15:19:36Z</time>
      </trkpt>
      <trkpt lat="44.64236" lon="6.07314">
        <ele>1282.16</ele>
        <time>2014-10-30T15:19:40Z</time>
      </trkpt>
      <trkpt lat="44.6423" lon="6.07311">
        <ele>1282.09</ele>
        <time>2014-10-30T15:19:43Z</time>
      </trkpt>
      <trkpt lat="44.64226" lon="6.07311">
        <ele>1282.07</ele>
        <time>2014-10-30T15:19:44Z</time>
      </trkpt>
      <trkpt lat="44.64222" lon="6.07313">
        <ele>1282.05</ele>
        <time>2014-10-30T15:19:45Z</time>
      </trkpt>
      <trkpt lat="44.64218" lon="6.07315">
        <ele>1282</ele>
        <time>2014-10-30T15:19:46Z</time>
      </trkpt>
      <trkpt lat="44.64213" lon="6.07321">
        <ele>1281.95</ele>
        <time>2014-10-30T15:19:47Z</time>
      </trkpt>
      <trkpt lat="44.64208" lon="6.07327">
        <ele>1281.87</ele>
        <time>2014-10-30T15:19:48Z</time>
      </trkpt>
      <trkpt lat="44.64204" lon="6.07336">
        <ele>1281.74</ele>
        <time>2014-10-30T15:19:49Z</time>
      </trkpt>
    </trkseg>
  </trk>
</gpx>